createdAt,value
2023-11-30T00:00:50.764Z,12.73
2023-11-30T00:03:19.261Z,12.77
2023-11-30T00:05:47.649Z,14.43
2023-11-30T00:08:16.047Z,12.57
2023-11-30T00:10:44.510Z,17.90
2023-11-30T00:13:13.081Z,13.30
2023-11-30T00:15:44.426Z,16.37
2023-11-30T00:18:14.695Z,14.07
2023-11-30T00:20:43.113Z,15.93
2023-11-30T00:23:11.478Z,17.80
2023-11-30T00:25:39.869Z,17.57
2023-11-30T00:28:08.471Z,8.30
2023-11-30T00:30:36.822Z,15.57
2023-11-30T00:33:06.983Z,12.53
2023-11-30T00:35:35.522Z,19.47
2023-11-30T00:38:03.633Z,13.70
2023-11-30T00:40:32.065Z,17.60
2023-11-30T00:43:00.510Z,12.40
2023-11-30T00:45:29.120Z,15.63
2023-11-30T00:47:57.539Z,13.20
2023-11-30T00:50:27.395Z,16.63
2023-11-30T00:52:55.816Z,17.37
2023-11-30T00:55:24.181Z,18.83
2023-11-30T00:57:52.578Z,15.17
2023-11-30T01:00:21.342Z,15.57
2023-11-30T01:02:49.933Z,15.57
2023-11-30T01:05:18.347Z,16.23
2023-11-30T01:07:48.075Z,14.27
2023-11-30T01:10:16.462Z,16.30
2023-11-30T01:12:44.852Z,18.83
2023-11-30T01:15:13.378Z,15.13
2023-11-30T01:17:41.882Z,12.63
2023-11-30T01:20:11.874Z,14.20
2023-11-30T01:22:40.258Z,15.93
2023-11-30T01:25:10.426Z,18.63
2023-11-30T01:27:38.977Z,18.73
2023-11-30T01:30:07.954Z,18.77
2023-11-30T01:32:36.376Z,15.23
2023-11-30T01:35:04.996Z,21.10
2023-11-30T01:37:33.483Z,14.00
2023-11-30T01:40:01.851Z,15.53
2023-11-30T01:42:31.785Z,17.40
2023-11-30T01:45:00.293Z,16.90
2023-11-30T01:47:28.765Z,16.50
2023-11-30T01:49:57.257Z,15.70
2023-11-30T01:52:26.215Z,12.83
2023-11-30T01:54:54.713Z,15.40
2023-11-30T01:57:23.359Z,17.97
2023-11-30T01:59:53.338Z,17.63
2023-11-30T02:02:21.944Z,18.00
2023-11-30T02:04:52.258Z,18.23
2023-11-30T02:07:21.342Z,13.50
2023-11-30T02:09:49.834Z,11.80
2023-11-30T02:12:18.326Z,18.93
2023-11-30T02:14:46.807Z,16.13
2023-11-30T02:17:16.736Z,17.40
2023-11-30T02:19:45.116Z,15.37
2023-11-30T02:22:15.039Z,17.20
2023-11-30T02:24:43.419Z,14.97
2023-11-30T02:27:11.934Z,16.83
2023-11-30T02:29:40.395Z,14.93
2023-11-30T02:32:09.059Z,14.83
2023-11-30T02:34:37.621Z,15.63
2023-11-30T02:37:06.193Z,18.03
2023-11-30T02:39:36.096Z,15.67
2023-11-30T02:42:06.447Z,13.77
2023-11-30T02:44:35.082Z,13.03
2023-11-30T02:47:03.506Z,16.53
2023-11-30T02:49:31.960Z,14.50
2023-11-30T02:52:00.801Z,14.93
2023-11-30T02:54:29.243Z,14.90
2023-11-30T02:56:59.097Z,17.03
2023-11-30T02:59:27.485Z,15.33
2023-11-30T03:01:55.928Z,16.93
2023-11-30T03:04:24.448Z,12.07
2023-11-30T03:06:52.998Z,25.27
2023-11-30T03:09:21.504Z,14.93
2023-11-30T03:11:49.905Z,14.20
2023-11-30T03:14:19.722Z,14.63
2023-11-30T03:16:48.230Z,12.13
2023-11-30T03:19:17.858Z,14.93
2023-11-30T03:21:46.350Z,11.93
2023-11-30T03:24:14.791Z,15.30
2023-11-30T03:26:43.212Z,14.53
2023-11-30T03:29:11.403Z,14.63
2023-11-30T03:31:41.449Z,20.00
2023-11-30T03:34:10.233Z,19.77
2023-11-30T03:36:38.793Z,15.17
2023-11-30T03:39:07.712Z,20.60
2023-11-30T03:41:36.089Z,15.87
2023-11-30T03:44:04.720Z,15.70
2023-11-30T03:46:33.180Z,11.87
2023-11-30T03:49:02.985Z,14.63
2023-11-30T03:51:31.491Z,13.20
2023-11-30T03:53:59.937Z,19.43
2023-11-30T03:56:29.352Z,23.80
2023-11-30T03:58:57.780Z,15.07
2023-11-30T04:01:27.122Z,17.53
2023-11-30T04:03:56.017Z,16.90
2023-11-30T04:06:26.228Z,15.83
2023-11-30T04:08:54.830Z,14.87
2023-11-30T04:11:23.286Z,12.43
2023-11-30T04:13:51.638Z,21.57
2023-11-30T04:16:20.147Z,22.07
2023-11-30T04:18:48.590Z,16.57
2023-11-30T04:21:17.197Z,15.33
2023-11-30T04:23:47.248Z,18.33
2023-11-30T04:26:15.877Z,16.30
2023-11-30T04:28:44.283Z,15.57
2023-11-30T04:31:12.844Z,15.73
2023-11-30T04:33:41.362Z,12.43
2023-11-30T04:36:10.097Z,16.83
2023-11-30T04:38:38.558Z,16.87
2023-11-30T04:41:08.586Z,14.87
2023-11-30T04:43:38.521Z,14.77
2023-11-30T04:46:07.383Z,13.43
2023-11-30T04:48:36.566Z,15.47
2023-11-30T04:51:05.841Z,13.37
2023-11-30T04:53:35.203Z,15.47
2023-11-30T04:56:03.553Z,14.83
2023-11-30T04:58:33.348Z,18.77
2023-11-30T05:01:01.985Z,13.37
2023-11-30T05:03:30.636Z,16.63
2023-11-30T05:05:59.440Z,12.37
2023-11-30T05:08:27.831Z,21.93
2023-11-30T05:10:56.344Z,14.40
2023-11-30T05:13:24.783Z,15.17
2023-11-30T05:15:54.683Z,25.37
2023-11-30T05:18:23.777Z,19.30
2023-11-30T05:20:52.196Z,20.90
2023-11-30T05:23:20.592Z,16.23
2023-11-30T05:25:48.972Z,17.13
2023-11-30T05:28:17.518Z,16.53
2023-11-30T05:30:45.926Z,15.50
2023-11-30T05:33:16.380Z,16.53
2023-11-30T05:35:45.026Z,17.83
2023-11-30T05:38:13.400Z,15.43
2023-11-30T05:40:41.790Z,15.20
2023-11-30T05:43:10.157Z,20.60
2023-11-30T05:45:38.567Z,15.90
2023-11-30T05:48:07.315Z,13.47
2023-11-30T05:50:37.860Z,17.17
2023-11-30T05:53:07.139Z,15.10
2023-11-30T05:55:35.478Z,16.37
2023-11-30T05:58:03.901Z,15.43
2023-11-30T06:00:32.815Z,11.97
2023-11-30T06:03:01.305Z,12.40
2023-11-30T06:05:29.721Z,14.93
2023-11-30T06:07:59.535Z,14.47
2023-11-30T06:10:27.928Z,12.87
2023-11-30T06:12:56.297Z,12.93
2023-11-30T06:15:24.690Z,11.50
2023-11-30T06:17:53.326Z,12.40
2023-11-30T06:20:21.745Z,17.70
2023-11-30T06:22:50.105Z,16.77
2023-11-30T06:25:19.559Z,10.90
2023-11-30T06:27:47.928Z,13.00
2023-11-30T06:30:16.573Z,16.50
2023-11-30T06:32:44.997Z,14.70
2023-11-30T06:35:13.398Z,20.13
2023-11-30T06:37:41.820Z,15.80
2023-11-30T06:40:11.253Z,14.30
2023-11-30T06:42:41.224Z,13.80
2023-11-30T06:45:10.077Z,12.57
2023-11-30T06:47:38.491Z,15.83
2023-11-30T06:50:08.053Z,11.63
2023-11-30T06:52:36.440Z,11.50
2023-11-30T06:55:05.799Z,11.03
2023-11-30T06:57:34.228Z,10.57
2023-11-30T07:00:04.455Z,13.63
2023-11-30T07:02:32.877Z,13.10
2023-11-30T07:05:01.437Z,19.70
2023-11-30T07:07:34.235Z,13.87
2023-11-30T07:10:05.425Z,11.77
2023-11-30T07:12:34.017Z,10.97
2023-11-30T07:15:04.833Z,13.20
2023-11-30T07:17:33.347Z,13.43
2023-11-30T07:20:01.777Z,13.90
2023-11-30T07:22:30.671Z,12.00
2023-11-30T07:24:59.296Z,15.10
2023-11-30T07:27:28.027Z,10.87
2023-11-30T07:29:56.667Z,11.70
2023-11-30T07:32:26.622Z,13.27
2023-11-30T07:34:55.024Z,14.17
2023-11-30T07:37:24.232Z,13.33
2023-11-30T07:39:54.440Z,14.13
2023-11-30T07:42:29.620Z,10.37
2023-11-30T07:45:04.683Z,13.63
2023-11-30T07:47:34.552Z,13.17
2023-11-30T07:50:03.079Z,13.33
2023-11-30T07:52:32.268Z,12.00
2023-11-30T07:55:01.265Z,12.30
2023-11-30T07:57:30.543Z,10.87
2023-11-30T07:59:58.924Z,15.40
2023-11-30T08:02:27.369Z,12.03
2023-11-30T08:04:57.358Z,14.03
2023-11-30T08:07:25.805Z,10.30
2023-11-30T08:09:54.564Z,13.53
2023-11-30T08:12:23.142Z,13.13
2023-11-30T08:14:51.685Z,10.07
2023-11-30T08:17:20.239Z,12.07
2023-11-30T08:19:49.996Z,16.10
2023-11-30T08:22:19.423Z,11.70
2023-11-30T08:24:48.071Z,18.13
2023-11-30T08:27:16.504Z,19.07
2023-11-30T08:29:44.916Z,16.83
2023-11-30T08:32:14.449Z,14.07
2023-11-30T08:34:42.876Z,15.37
2023-11-30T08:37:11.368Z,16.87
2023-11-30T08:39:42.724Z,22.13
2023-11-30T08:42:12.892Z,18.93
2023-11-30T08:44:41.749Z,20.30
2023-11-30T08:47:10.195Z,17.57
2023-11-30T08:49:38.723Z,13.43
2023-11-30T08:52:07.448Z,19.50
2023-11-30T08:54:36.147Z,22.93
2023-11-30T08:57:08.862Z,17.47
2023-11-30T08:59:37.521Z,18.03
2023-11-30T09:02:06.849Z,18.00
2023-11-30T09:04:35.542Z,13.83
2023-11-30T09:07:03.970Z,23.90
2023-11-30T09:09:32.404Z,23.17
2023-11-30T09:12:00.828Z,21.67
2023-11-30T09:14:30.452Z,21.27
2023-11-30T09:17:00.467Z,25.83
2023-11-30T09:19:29.078Z,18.47
2023-11-30T09:21:58.309Z,19.60
2023-11-30T09:24:26.851Z,19.67
2023-11-30T09:26:55.616Z,15.10
2023-11-30T09:29:24.158Z,16.67
2023-11-30T09:31:54.166Z,14.90
2023-11-30T09:34:23.258Z,16.27
2023-11-30T09:36:51.824Z,17.10
2023-11-30T09:39:20.977Z,11.83
2023-11-30T09:41:49.503Z,12.57
2023-11-30T09:44:17.927Z,14.77
2023-11-30T09:46:46.844Z,11.03
2023-11-30T09:49:16.409Z,11.43
2023-11-30T09:51:49.752Z,12.80
2023-11-30T09:54:18.974Z,12.37
2023-11-30T09:56:47.355Z,12.10
2023-11-30T09:59:15.541Z,11.93
2023-11-30T10:01:45.029Z,11.27
2023-11-30T10:04:18.499Z,13.53
2023-11-30T10:06:49.380Z,12.53
2023-11-30T10:09:17.997Z,13.47
2023-11-30T10:11:46.580Z,13.80
2023-11-30T10:14:15.180Z,15.27
2023-11-30T10:16:43.639Z,10.53
2023-11-30T10:19:12.840Z,14.33
2023-11-30T10:21:43.208Z,12.83
2023-11-30T10:24:11.695Z,15.27
2023-11-30T10:26:40.233Z,14.87
2023-11-30T10:29:08.532Z,15.33
2023-11-30T10:31:37.745Z,14.23
2023-11-30T10:34:13.060Z,15.67
2023-11-30T10:36:45.386Z,10.67
2023-11-30T10:39:18.023Z,13.77
2023-11-30T10:41:53.398Z,15.50
2023-11-30T10:44:27.557Z,13.60
2023-11-30T10:46:56.974Z,19.60
2023-11-30T10:49:26.419Z,15.07
2023-11-30T10:52:00.956Z,16.30
2023-11-30T10:54:34.032Z,11.80
2023-11-30T10:57:02.888Z,12.60
2023-11-30T10:59:31.429Z,16.10
2023-11-30T11:02:02.054Z,12.73
2023-11-30T11:04:31.144Z,11.30
2023-11-30T11:07:04.511Z,14.53
2023-11-30T11:09:43.041Z,16.57
2023-11-30T11:12:29.442Z,17.50
2023-11-30T11:15:13.152Z,14.80
2023-11-30T11:17:48.425Z,13.90
2023-11-30T11:20:27.406Z,11.93
2023-11-30T11:22:58.116Z,18.87
2023-11-30T11:25:27.753Z,14.97
2023-11-30T11:27:56.131Z,17.33
2023-11-30T11:30:27.966Z,13.53
2023-11-30T11:32:59.529Z,11.80
2023-11-30T11:35:28.861Z,13.20
2023-11-30T11:38:00.066Z,11.07
2023-11-30T11:40:29.315Z,11.83
2023-11-30T11:42:58.047Z,13.03
2023-11-30T11:45:26.719Z,15.10
2023-11-30T11:47:55.305Z,10.77
2023-11-30T11:50:24.016Z,14.00
2023-11-30T11:52:52.527Z,12.90
2023-11-30T11:55:25.898Z,12.90
2023-11-30T11:57:55.155Z,13.20
2023-11-30T12:00:25.426Z,16.43
2023-11-30T12:02:54.297Z,12.53
2023-11-30T12:05:26.737Z,20.17
2023-11-30T12:07:57.237Z,14.57
2023-11-30T12:10:31.045Z,11.40
2023-11-30T12:13:00.667Z,14.87
2023-11-30T12:15:29.403Z,14.00
2023-11-30T12:17:58.153Z,11.20
2023-11-30T12:20:26.600Z,11.73
2023-11-30T12:22:55.075Z,10.23
2023-11-30T12:25:23.654Z,14.17
2023-11-30T12:27:53.597Z,11.27
2023-11-30T12:30:22.210Z,10.63
2023-11-30T12:32:51.091Z,10.80
2023-11-30T12:35:19.629Z,11.00
2023-11-30T12:37:49.819Z,9.80
2023-11-30T12:40:18.337Z,9.70
2023-11-30T12:42:46.837Z,10.67
2023-11-30T12:45:16.841Z,10.80
2023-11-30T12:47:47.166Z,8.60
2023-11-30T12:50:15.849Z,8.10
2023-11-30T12:52:44.309Z,9.50
2023-11-30T12:55:13.487Z,7.37
2023-11-30T12:57:42.023Z,8.33
2023-11-30T13:00:16.110Z,8.00
2023-11-30T13:02:48.707Z,9.23
2023-11-30T13:05:17.758Z,7.33
2023-11-30T13:07:45.883Z,10.00
2023-11-30T13:10:14.298Z,8.73
2023-11-30T13:12:43.410Z,6.43
2023-11-30T13:15:13.516Z,6.33
2023-11-30T13:17:42.722Z,6.67
2023-11-30T13:20:15.502Z,8.40
2023-11-30T13:22:45.957Z,6.83
2023-11-30T13:25:15.960Z,6.47
2023-11-30T13:27:47.483Z,5.57
2023-11-30T13:30:17.714Z,6.73
2023-11-30T13:32:47.328Z,7.43
2023-11-30T13:35:17.476Z,6.07
2023-11-30T13:37:46.020Z,6.33
2023-11-30T13:40:16.012Z,10.87
2023-11-30T13:42:44.488Z,7.47
2023-11-30T13:45:12.946Z,8.43
2023-11-30T13:47:42.754Z,6.57
2023-11-30T13:50:20.303Z,6.67
2023-11-30T13:53:00.922Z,6.37
2023-11-30T13:55:30.127Z,11.07
2023-11-30T13:57:59.750Z,9.47
2023-11-30T14:00:28.205Z,10.13
2023-11-30T14:02:56.639Z,8.60
2023-11-30T14:05:25.602Z,7.47
2023-11-30T14:07:53.978Z,8.57
2023-11-30T14:10:23.869Z,8.97
2023-11-30T14:12:52.460Z,7.83
2023-11-30T14:15:22.223Z,11.33
2023-11-30T14:17:50.922Z,8.60
2023-11-30T14:20:21.153Z,7.87
2023-11-30T14:22:49.626Z,9.97
2023-11-30T14:25:18.313Z,8.33
2023-11-30T14:27:48.662Z,8.37
2023-11-30T14:30:17.407Z,8.40
2023-11-30T14:32:45.896Z,9.23
2023-11-30T14:35:14.060Z,6.63
2023-11-30T14:37:42.866Z,8.40
2023-11-30T14:40:14.292Z,8.93
2023-11-30T14:42:43.236Z,8.57
2023-11-30T14:45:14.065Z,9.10
2023-11-30T14:47:44.736Z,14.00
2023-11-30T14:50:13.538Z,9.00
2023-11-30T14:52:45.418Z,7.87
2023-11-30T14:55:14.095Z,9.30
2023-11-30T14:57:44.019Z,8.93
2023-11-30T15:00:18.082Z,11.00
2023-11-30T15:02:46.635Z,6.03
2023-11-30T15:05:16.288Z,9.87
2023-11-30T15:07:44.852Z,10.03
2023-11-30T15:10:13.895Z,8.57
2023-11-30T15:12:42.606Z,12.23
2023-11-30T15:15:15.392Z,9.93
2023-11-30T15:17:47.106Z,6.90
2023-11-30T15:20:16.191Z,9.70
2023-11-30T15:22:45.292Z,10.37
2023-11-30T15:25:18.686Z,11.50
2023-11-30T15:27:48.224Z,10.13
2023-11-30T15:30:17.236Z,9.30
2023-11-30T15:32:47.290Z,10.50
2023-11-30T15:35:16.275Z,10.30
2023-11-30T15:37:49.380Z,8.27
2023-11-30T15:40:18.814Z,10.60
2023-11-30T15:42:47.652Z,10.17
2023-11-30T15:45:18.461Z,9.93
2023-11-30T15:47:49.862Z,10.33
2023-11-30T15:50:18.622Z,10.93
2023-11-30T15:52:47.142Z,7.10
2023-11-30T15:55:15.671Z,9.27
2023-11-30T15:57:45.646Z,14.70
2023-11-30T16:00:14.960Z,9.40
2023-11-30T16:02:46.205Z,10.50
2023-11-30T16:05:15.973Z,12.00
2023-11-30T16:07:44.758Z,7.90
2023-11-30T16:10:14.261Z,8.47
2023-11-30T16:12:42.784Z,9.00
2023-11-30T16:15:12.840Z,10.87
2023-11-30T16:17:41.388Z,13.43
2023-11-30T16:20:12.505Z,9.77
2023-11-30T16:22:42.467Z,9.33
2023-11-30T16:25:12.728Z,9.37
2023-11-30T16:27:42.299Z,9.40
2023-11-30T16:30:12.110Z,9.93
2023-11-30T16:32:40.550Z,10.53
2023-11-30T16:35:09.352Z,10.50
2023-11-30T16:37:38.056Z,9.63
2023-11-30T16:40:08.921Z,7.00
2023-11-30T16:42:37.485Z,10.43
2023-11-30T16:45:07.274Z,12.70
2023-11-30T16:47:35.878Z,11.47
2023-11-30T16:50:05.486Z,7.70
2023-11-30T16:52:34.066Z,8.80
2023-11-30T16:55:02.750Z,9.53
2023-11-30T16:57:34.604Z,11.87
2023-11-30T17:00:04.541Z,9.47
2023-11-30T17:02:32.912Z,7.70
2023-11-30T17:05:01.325Z,10.50
2023-11-30T17:07:29.689Z,9.40
2023-11-30T17:09:58.803Z,8.90
2023-11-30T17:12:27.526Z,9.57
2023-11-30T17:14:57.311Z,10.67
2023-11-30T17:17:25.707Z,11.33
2023-11-30T17:19:54.542Z,9.90
2023-11-30T17:22:23.111Z,12.40
2023-11-30T17:24:51.583Z,9.20
2023-11-30T17:27:19.997Z,10.17
2023-11-30T17:29:48.373Z,11.23
2023-11-30T17:32:18.653Z,13.70
2023-11-30T17:34:47.260Z,15.27
2023-11-30T17:37:15.790Z,9.73
2023-11-30T17:39:44.234Z,9.53
2023-11-30T17:42:12.734Z,11.23
2023-11-30T17:44:41.098Z,18.57
2023-11-30T17:47:09.448Z,15.17
2023-11-30T17:49:39.200Z,14.53
2023-11-30T17:52:07.880Z,14.27
2023-11-30T17:54:36.374Z,14.90
2023-11-30T17:57:04.755Z,12.93
2023-11-30T17:59:33.144Z,15.07
2023-11-30T18:02:01.830Z,13.27
2023-11-30T18:04:30.244Z,11.57
2023-11-30T18:07:00.048Z,9.73
2023-11-30T18:09:28.518Z,14.07
2023-11-30T18:11:57.965Z,11.33
2023-11-30T18:14:32.413Z,15.70
2023-11-30T18:17:01.017Z,15.83
2023-11-30T18:19:29.517Z,14.37
2023-11-30T18:21:58.061Z,12.00
2023-11-30T18:24:31.422Z,12.07
2023-11-30T18:27:00.084Z,13.83
2023-11-30T18:29:28.710Z,21.03
2023-11-30T18:31:57.113Z,17.73
2023-11-30T18:34:25.771Z,18.40
2023-11-30T18:36:54.669Z,15.03
2023-11-30T18:39:24.425Z,16.30
2023-11-30T18:41:56.260Z,17.90
2023-11-30T18:44:24.829Z,19.43
2023-11-30T18:46:53.568Z,13.93
2023-11-30T18:49:21.960Z,14.70
2023-11-30T18:51:50.396Z,15.47
2023-11-30T18:54:20.504Z,11.97
2023-11-30T18:56:50.140Z,14.57
2023-11-30T18:59:19.862Z,18.80
2023-11-30T19:01:48.445Z,15.43
2023-11-30T19:04:16.874Z,17.50
2023-11-30T19:06:45.439Z,13.63
2023-11-30T19:09:14.382Z,15.13
2023-11-30T19:11:42.934Z,16.47
2023-11-30T19:14:11.566Z,16.23
2023-11-30T19:16:42.101Z,16.07
2023-11-30T19:19:10.726Z,15.90
2023-11-30T19:21:42.590Z,17.10
2023-11-30T19:24:11.147Z,14.57
2023-11-30T19:26:40.860Z,14.90
2023-11-30T19:29:11.089Z,17.90
2023-11-30T19:31:40.917Z,15.90
2023-11-30T19:34:10.699Z,20.47
2023-11-30T19:36:40.417Z,20.47
2023-11-30T19:39:08.890Z,18.80
2023-11-30T19:41:37.289Z,16.13
2023-11-30T19:44:05.816Z,19.00
2023-11-30T19:46:35.534Z,17.60
2023-11-30T19:49:05.434Z,17.07
2023-11-30T19:51:34.004Z,15.23
2023-11-30T19:54:03.248Z,18.23
2023-11-30T19:56:32.410Z,14.80
2023-11-30T19:59:01.339Z,20.00
2023-11-30T20:01:29.893Z,21.37
2023-11-30T20:03:58.465Z,17.60
2023-11-30T20:06:28.350Z,15.33
2023-11-30T20:08:56.851Z,15.43
2023-11-30T20:11:25.342Z,17.30
2023-11-30T20:13:53.840Z,16.73
2023-11-30T20:16:22.392Z,20.57
2023-11-30T20:18:50.942Z,16.67
2023-11-30T20:21:21.937Z,15.40
2023-11-30T20:23:51.968Z,19.57
2023-11-30T20:26:20.592Z,17.63
2023-11-30T20:28:49.070Z,15.33
2023-11-30T20:31:17.848Z,18.23
2023-11-30T20:33:47.704Z,18.23
2023-11-30T20:36:16.371Z,21.27
2023-11-30T20:38:45.956Z,11.70
2023-11-30T20:41:15.774Z,14.80
2023-11-30T20:43:44.210Z,18.80
2023-11-30T20:46:12.632Z,16.57
2023-11-30T20:48:41.113Z,21.27
2023-11-30T20:51:10.172Z,25.03
2023-11-30T20:53:38.601Z,26.57
2023-11-30T20:56:07.734Z,27.63
2023-11-30T20:58:37.992Z,21.23
2023-11-30T21:01:06.696Z,19.93
2023-11-30T21:03:35.373Z,22.47
2023-11-30T21:06:03.919Z,20.10
2023-11-30T21:08:33.763Z,21.67
2023-11-30T21:11:02.337Z,23.07
2023-11-30T21:13:31.029Z,24.80
2023-11-30T21:16:00.895Z,17.63
2023-11-30T21:18:29.451Z,22.53
2023-11-30T21:20:57.818Z,24.40
2023-11-30T21:23:26.282Z,25.37
2023-11-30T21:25:56.192Z,24.00
2023-11-30T21:28:24.646Z,24.57
2023-11-30T21:30:53.176Z,26.17
2023-11-30T21:33:23.135Z,26.97
2023-11-30T21:35:51.551Z,29.17
2023-11-30T21:38:19.957Z,18.43
2023-11-30T21:40:48.367Z,22.67
2023-11-30T21:43:16.797Z,21.67
2023-11-30T21:45:45.187Z,15.83
2023-11-30T21:48:13.836Z,17.33
2023-11-30T21:50:44.385Z,26.10
2023-11-30T21:53:12.166Z,22.10
2023-11-30T21:55:41.549Z,22.17
2023-11-30T21:58:10.070Z,20.70
2023-11-30T22:00:39.519Z,29.63
2023-11-30T22:03:08.053Z,24.63
2023-11-30T22:05:37.447Z,29.87
2023-11-30T22:08:07.594Z,24.37
2023-11-30T22:10:36.072Z,25.40
2023-11-30T22:13:04.506Z,30.60
2023-11-30T22:15:32.969Z,23.30
2023-11-30T22:18:01.605Z,25.93
2023-11-30T22:20:30.024Z,26.77
2023-11-30T22:22:58.264Z,26.60
2023-11-30T22:25:28.043Z,27.17
2023-11-30T22:27:56.403Z,27.00
2023-11-30T22:30:24.992Z,28.97
2023-11-30T22:32:54.033Z,28.53
2023-11-30T22:35:22.510Z,26.43
2023-11-30T22:37:51.246Z,34.77
2023-11-30T22:40:19.849Z,23.37
2023-11-30T22:42:49.762Z,29.40
2023-11-30T22:45:18.176Z,30.93
2023-11-30T22:47:46.608Z,27.97
2023-11-30T22:50:15.097Z,28.80
2023-11-30T22:52:43.854Z,31.27
2023-11-30T22:55:12.476Z,31.07
2023-11-30T22:57:40.997Z,28.13
2023-11-30T23:00:20.959Z,30.07
2023-11-30T23:02:50.062Z,27.90
2023-11-30T23:05:18.905Z,30.00
2023-11-30T23:07:48.183Z,31.23
2023-11-30T23:10:18.485Z,32.73
2023-11-30T23:12:47.533Z,27.57
2023-11-30T23:15:17.469Z,34.13
2023-11-30T23:17:45.877Z,29.13
2023-11-30T23:20:14.481Z,38.77
2023-11-30T23:22:42.890Z,36.00
2023-11-30T23:25:12.508Z,37.87
2023-11-30T23:27:41.040Z,35.37
2023-11-30T23:30:09.816Z,30.40
2023-11-30T23:32:39.606Z,30.03
2023-11-30T23:35:08.740Z,28.57
2023-11-30T23:37:37.232Z,25.77
2023-11-30T23:40:05.852Z,30.67
2023-11-30T23:42:34.438Z,39.07
2023-11-30T23:45:03.717Z,44.07
2023-11-30T23:47:33.167Z,33.20
2023-11-30T23:50:03.009Z,61.33
2023-11-30T23:52:31.449Z,33.97
2023-11-30T23:54:59.863Z,40.77
2023-11-30T23:57:29.000Z,35.00
2023-11-30T23:59:57.400Z,31.20
